sensor_id;sensor_type;location;lat;lon;timestamp;P1;durP1;ratioP1;P2;durP2;ratioP2
57029;SDS011;42920;45.306;20.448;2023-07-13T00:00:23;17.80;;;8.18;;
57029;SDS011;42920;45.306;20.448;2023-07-13T00:02:50;16.48;;;9.07;;
57029;SDS011;42920;45.306;20.448;2023-07-13T00:05:18;17.52;;;8.05;;
57029;SDS011;42920;45.306;20.448;2023-07-13T00:07:48;19.77;;;9.90;;
57029;SDS011;42920;45.306;20.448;2023-07-13T00:10:15;17.60;;;8.85;;
57029;SDS011;42920;45.306;20.448;2023-07-13T00:12:41;19.52;;;9.40;;
57029;SDS011;42920;45.306;20.448;2023-07-13T00:15:10;19.63;;;9.98;;
57029;SDS011;42920;45.306;20.448;2023-07-13T00:17:41;22.10;;;9.18;;
57029;SDS011;42920;45.306;20.448;2023-07-13T00:20:07;19.25;;;8.70;;
57029;SDS011;42920;45.306;20.448;2023-07-13T00:22:34;18.83;;;8.73;;
57029;SDS011;42920;45.306;20.448;2023-07-13T00:25:00;17.88;;;8.68;;
57029;SDS011;42920;45.306;20.448;2023-07-13T00:27:26;18.98;;;8.63;;
57029;SDS011;42920;45.306;20.448;2023-07-13T00:29:51;16.02;;;8.20;;
57029;SDS011;42920;45.306;20.448;2023-07-13T00:32:17;17.25;;;8.35;;
57029;SDS011;42920;45.306;20.448;2023-07-13T00:34:43;16.23;;;8.48;;
57029;SDS011;42920;45.306;20.448;2023-07-13T00:37:09;17.90;;;7.90;;
57029;SDS011;42920;45.306;20.448;2023-07-13T00:39:36;17.45;;;8.23;;
57029;SDS011;42920;45.306;20.448;2023-07-13T00:42:02;15.00;;;8.60;;
57029;SDS011;42920;45.306;20.448;2023-07-13T00:44:28;15.05;;;8.48;;
57029;SDS011;42920;45.306;20.448;2023-07-13T00:46:54;18.48;;;8.75;;
57029;SDS011;42920;45.306;20.448;2023-07-13T00:49:21;13.82;;;8.50;;
57029;SDS011;42920;45.306;20.448;2023-07-13T00:51:50;16.98;;;9.23;;
57029;SDS011;42920;45.306;20.448;2023-07-13T00:54:24;16.70;;;7.50;;
57029;SDS011;42920;45.306;20.448;2023-07-13T00:56:55;16.83;;;9.35;;
57029;SDS011;42920;45.306;20.448;2023-07-13T00:59:24;18.05;;;8.85;;
57029;SDS011;42920;45.306;20.448;2023-07-13T01:01:50;16.73;;;7.75;;
57029;SDS011;42920;45.306;20.448;2023-07-13T01:04:16;16.08;;;8.57;;
57029;SDS011;42920;45.306;20.448;2023-07-13T01:06:42;22.80;;;9.13;;
57029;SDS011;42920;45.306;20.448;2023-07-13T01:09:09;18.65;;;8.40;;
57029;SDS011;42920;45.306;20.448;2023-07-13T01:11:36;15.20;;;8.27;;
57029;SDS011;42920;45.306;20.448;2023-07-13T01:14:02;19.05;;;9.00;;
57029;SDS011;42920;45.306;20.448;2023-07-13T01:16:30;14.90;;;8.70;;
57029;SDS011;42920;45.306;20.448;2023-07-13T01:18:57;13.13;;;8.32;;
57029;SDS011;42920;45.306;20.448;2023-07-13T01:21:24;15.00;;;8.07;;
57029;SDS011;42920;45.306;20.448;2023-07-13T01:23:51;19.20;;;9.52;;
57029;SDS011;42920;45.306;20.448;2023-07-13T01:26:17;18.63;;;8.77;;
57029;SDS011;42920;45.306;20.448;2023-07-13T01:28:42;16.17;;;9.38;;
57029;SDS011;42920;45.306;20.448;2023-07-13T01:31:08;15.57;;;8.63;;
57029;SDS011;42920;45.306;20.448;2023-07-13T01:33:36;15.63;;;8.32;;
57029;SDS011;42920;45.306;20.448;2023-07-13T01:36:04;17.45;;;8.20;;
57029;SDS011;42920;45.306;20.448;2023-07-13T01:38:31;18.75;;;10.25;;
57029;SDS011;42920;45.306;20.448;2023-07-13T01:40:58;17.48;;;9.38;;
57029;SDS011;42920;45.306;20.448;2023-07-13T01:43:24;14.93;;;9.18;;
57029;SDS011;42920;45.306;20.448;2023-07-13T01:45:50;18.35;;;8.95;;
57029;SDS011;42920;45.306;20.448;2023-07-13T01:48:15;18.33;;;9.13;;
57029;SDS011;42920;45.306;20.448;2023-07-13T01:50:41;16.58;;;9.38;;
57029;SDS011;42920;45.306;20.448;2023-07-13T01:53:07;18.20;;;8.85;;
57029;SDS011;42920;45.306;20.448;2023-07-13T01:55:33;18.50;;;8.75;;
57029;SDS011;42920;45.306;20.448;2023-07-13T01:58:00;15.75;;;8.73;;
57029;SDS011;42920;45.306;20.448;2023-07-13T02:00:26;13.43;;;9.07;;
57029;SDS011;42920;45.306;20.448;2023-07-13T02:02:52;16.00;;;8.20;;
57029;SDS011;42920;45.306;20.448;2023-07-13T02:05:17;21.33;;;8.57;;
57029;SDS011;42920;45.306;20.448;2023-07-13T02:07:44;16.63;;;8.30;;
57029;SDS011;42920;45.306;20.448;2023-07-13T02:10:10;19.67;;;9.35;;
57029;SDS011;42920;45.306;20.448;2023-07-13T02:12:36;17.58;;;8.60;;
57029;SDS011;42920;45.306;20.448;2023-07-13T02:15:03;14.63;;;8.75;;
57029;SDS011;42920;45.306;20.448;2023-07-13T02:17:29;19.00;;;8.32;;
57029;SDS011;42920;45.306;20.448;2023-07-13T02:19:55;16.35;;;8.77;;
57029;SDS011;42920;45.306;20.448;2023-07-13T02:22:21;19.73;;;9.35;;
57029;SDS011;42920;45.306;20.448;2023-07-13T02:24:47;21.70;;;9.38;;
57029;SDS011;42920;45.306;20.448;2023-07-13T02:27:13;21.45;;;9.88;;
57029;SDS011;42920;45.306;20.448;2023-07-13T02:29:39;17.35;;;10.00;;
57029;SDS011;42920;45.306;20.448;2023-07-13T02:32:04;19.90;;;9.93;;
57029;SDS011;42920;45.306;20.448;2023-07-13T02:34:30;19.90;;;10.48;;
57029;SDS011;42920;45.306;20.448;2023-07-13T02:36:56;21.13;;;10.15;;
57029;SDS011;42920;45.306;20.448;2023-07-13T02:39:22;15.55;;;9.05;;
57029;SDS011;42920;45.306;20.448;2023-07-13T02:41:47;19.98;;;9.60;;
57029;SDS011;42920;45.306;20.448;2023-07-13T02:44:13;24.35;;;10.63;;
57029;SDS011;42920;45.306;20.448;2023-07-13T02:46:40;16.40;;;10.05;;
57029;SDS011;42920;45.306;20.448;2023-07-13T02:49:05;20.80;;;10.63;;
57029;SDS011;42920;45.306;20.448;2023-07-13T02:51:31;16.33;;;9.15;;
57029;SDS011;42920;45.306;20.448;2023-07-13T02:53:59;25.50;;;10.52;;
57029;SDS011;42920;45.306;20.448;2023-07-13T02:56:26;16.63;;;9.27;;
57029;SDS011;42920;45.306;20.448;2023-07-13T02:58:53;19.25;;;9.95;;
57029;SDS011;42920;45.306;20.448;2023-07-13T03:01:19;22.55;;;10.52;;
57029;SDS011;42920;45.306;20.448;2023-07-13T03:03:46;18.67;;;9.77;;
57029;SDS011;42920;45.306;20.448;2023-07-13T03:06:13;26.20;;;10.88;;
57029;SDS011;42920;45.306;20.448;2023-07-13T03:08:40;17.45;;;10.55;;
57029;SDS011;42920;45.306;20.448;2023-07-13T03:11:17;21.08;;;9.65;;
57029;SDS011;42920;45.306;20.448;2023-07-13T03:13:43;27.83;;;12.48;;
57029;SDS011;42920;45.306;20.448;2023-07-13T03:16:09;21.65;;;9.15;;
57029;SDS011;42920;45.306;20.448;2023-07-13T03:18:36;18.83;;;10.00;;
57029;SDS011;42920;45.306;20.448;2023-07-13T03:21:03;18.40;;;10.75;;
57029;SDS011;42920;45.306;20.448;2023-07-13T03:23:30;22.10;;;11.02;;
57029;SDS011;42920;45.306;20.448;2023-07-13T03:26:15;17.38;;;9.82;;
57029;SDS011;42920;45.306;20.448;2023-07-13T03:28:43;25.30;;;11.00;;
57029;SDS011;42920;45.306;20.448;2023-07-13T03:31:11;20.60;;;11.10;;
57029;SDS011;42920;45.306;20.448;2023-07-13T03:33:39;21.63;;;11.38;;
57029;SDS011;42920;45.306;20.448;2023-07-13T03:36:05;24.25;;;11.05;;
57029;SDS011;42920;45.306;20.448;2023-07-13T03:38:32;20.58;;;10.68;;
57029;SDS011;42920;45.306;20.448;2023-07-13T03:40:58;21.42;;;11.55;;
57029;SDS011;42920;45.306;20.448;2023-07-13T03:43:24;22.23;;;10.68;;
57029;SDS011;42920;45.306;20.448;2023-07-13T03:45:50;27.50;;;11.80;;
57029;SDS011;42920;45.306;20.448;2023-07-13T03:48:15;22.58;;;12.27;;
57029;SDS011;42920;45.306;20.448;2023-07-13T03:50:41;21.05;;;12.60;;
57029;SDS011;42920;45.306;20.448;2023-07-13T03:53:07;21.77;;;12.32;;
57029;SDS011;42920;45.306;20.448;2023-07-13T03:55:33;28.48;;;15.15;;
57029;SDS011;42920;45.306;20.448;2023-07-13T03:58:00;26.20;;;15.93;;
57029;SDS011;42920;45.306;20.448;2023-07-13T04:00:46;25.33;;;12.98;;
57029;SDS011;42920;45.306;20.448;2023-07-13T04:03:12;22.23;;;12.50;;
57029;SDS011;42920;45.306;20.448;2023-07-13T04:05:38;23.52;;;12.90;;
57029;SDS011;42920;45.306;20.448;2023-07-13T04:08:05;22.70;;;12.75;;
57029;SDS011;42920;45.306;20.448;2023-07-13T04:10:31;24.88;;;11.73;;
57029;SDS011;42920;45.306;20.448;2023-07-13T04:12:57;20.52;;;12.60;;
57029;SDS011;42920;45.306;20.448;2023-07-13T04:15:22;19.23;;;12.55;;
57029;SDS011;42920;45.306;20.448;2023-07-13T04:17:48;30.50;;;13.32;;
57029;SDS011;42920;45.306;20.448;2023-07-13T04:20:14;23.17;;;12.52;;
57029;SDS011;42920;45.306;20.448;2023-07-13T04:22:39;18.38;;;12.30;;
57029;SDS011;42920;45.306;20.448;2023-07-13T04:25:05;21.23;;;12.93;;
57029;SDS011;42920;45.306;20.448;2023-07-13T04:27:31;22.30;;;12.57;;
57029;SDS011;42920;45.306;20.448;2023-07-13T04:29:57;22.90;;;13.57;;
57029;SDS011;42920;45.306;20.448;2023-07-13T04:32:23;23.40;;;14.23;;
57029;SDS011;42920;45.306;20.448;2023-07-13T04:34:48;22.92;;;14.52;;
57029;SDS011;42920;45.306;20.448;2023-07-13T04:37:18;23.70;;;13.82;;
57029;SDS011;42920;45.306;20.448;2023-07-13T04:39:45;22.50;;;15.10;;
57029;SDS011;42920;45.306;20.448;2023-07-13T04:42:10;26.63;;;14.93;;
57029;SDS011;42920;45.306;20.448;2023-07-13T04:44:36;27.08;;;15.07;;
57029;SDS011;42920;45.306;20.448;2023-07-13T04:47:02;23.00;;;14.55;;
57029;SDS011;42920;45.306;20.448;2023-07-13T04:49:27;30.60;;;18.23;;
57029;SDS011;42920;45.306;20.448;2023-07-13T04:51:53;30.80;;;16.20;;
57029;SDS011;42920;45.306;20.448;2023-07-13T04:54:20;23.23;;;16.88;;
57029;SDS011;42920;45.306;20.448;2023-07-13T10:03:52;19.83;;;7.68;;
57029;SDS011;42920;45.306;20.448;2023-07-13T10:06:19;19.35;;;9.13;;
57029;SDS011;42920;45.306;20.448;2023-07-13T10:08:51;20.15;;;8.15;;
57029;SDS011;42920;45.306;20.448;2023-07-13T10:11:19;19.30;;;8.45;;
57029;SDS011;42920;45.306;20.448;2023-07-13T10:13:55;23.60;;;8.07;;
57029;SDS011;42920;45.306;20.448;2023-07-13T10:16:21;18.45;;;9.05;;
57029;SDS011;42920;45.306;20.448;2023-07-13T10:18:50;15.98;;;7.80;;
57029;SDS011;42920;45.306;20.448;2023-07-13T10:21:20;16.30;;;8.65;;
57029;SDS011;42920;45.306;20.448;2023-07-13T10:24:00;17.15;;;8.57;;
57029;SDS011;42920;45.306;20.448;2023-07-13T10:26:31;21.48;;;7.82;;
57029;SDS011;42920;45.306;20.448;2023-07-13T10:29:01;19.38;;;7.97;;
57029;SDS011;42920;45.306;20.448;2023-07-13T10:31:36;18.85;;;8.23;;
57029;SDS011;42920;45.306;20.448;2023-07-13T10:34:03;18.98;;;7.70;;
57029;SDS011;42920;45.306;20.448;2023-07-13T10:36:34;18.70;;;8.18;;
57029;SDS011;42920;45.306;20.448;2023-07-13T10:39:05;18.05;;;8.13;;
57029;SDS011;42920;45.306;20.448;2023-07-13T10:41:34;17.50;;;7.95;;
57029;SDS011;42920;45.306;20.448;2023-07-13T10:44:04;17.30;;;8.05;;
57029;SDS011;42920;45.306;20.448;2023-07-13T10:46:32;19.00;;;7.35;;
57029;SDS011;42920;45.306;20.448;2023-07-13T10:48:59;20.67;;;7.38;;
57029;SDS011;42920;45.306;20.448;2023-07-13T10:51:30;17.05;;;7.47;;
57029;SDS011;42920;45.306;20.448;2023-07-13T10:56:48;17.67;;;7.97;;
57029;SDS011;42920;45.306;20.448;2023-07-13T10:59:17;15.48;;;7.53;;
57029;SDS011;42920;45.306;20.448;2023-07-13T11:01:53;14.73;;;6.72;;
57029;SDS011;42920;45.306;20.448;2023-07-13T11:04:25;24.90;;;8.00;;
57029;SDS011;42920;45.306;20.448;2023-07-13T11:06:58;20.42;;;7.57;;
57029;SDS011;42920;45.306;20.448;2023-07-13T11:09:40;17.65;;;8.57;;
57029;SDS011;42920;45.306;20.448;2023-07-13T11:22:41;21.48;;;7.22;;
57029;SDS011;42920;45.306;20.448;2023-07-13T11:30:35;15.73;;;7.40;;
57029;SDS011;42920;45.306;20.448;2023-07-13T11:38:31;20.50;;;7.27;;
57029;SDS011;42920;45.306;20.448;2023-07-13T11:41:07;18.27;;;7.25;;
57029;SDS011;42920;45.306;20.448;2023-07-13T11:43:38;16.90;;;7.07;;
57029;SDS011;42920;45.306;20.448;2023-07-13T11:48:46;22.42;;;8.55;;
57029;SDS011;42920;45.306;20.448;2023-07-13T11:51:16;20.88;;;7.40;;
57029;SDS011;42920;45.306;20.448;2023-07-13T11:53:50;14.48;;;6.60;;
57029;SDS011;42920;45.306;20.448;2023-07-13T11:56:18;20.38;;;6.60;;
57029;SDS011;42920;45.306;20.448;2023-07-13T11:58:47;23.02;;;7.60;;
57029;SDS011;42920;45.306;20.448;2023-07-13T12:01:20;14.15;;;6.50;;
57029;SDS011;42920;45.306;20.448;2023-07-13T12:03:51;18.92;;;7.15;;
57029;SDS011;42920;45.306;20.448;2023-07-13T12:06:25;13.43;;;6.03;;
57029;SDS011;42920;45.306;20.448;2023-07-13T12:09:13;23.70;;;7.32;;
57029;SDS011;42920;45.306;20.448;2023-07-13T12:11:43;17.35;;;7.20;;
57029;SDS011;42920;45.306;20.448;2023-07-13T12:14:13;15.77;;;7.45;;
57029;SDS011;42920;45.306;20.448;2023-07-13T12:16:44;16.83;;;6.63;;
57029;SDS011;42920;45.306;20.448;2023-07-13T12:19:20;15.38;;;6.53;;
57029;SDS011;42920;45.306;20.448;2023-07-13T12:21:47;16.88;;;6.32;;
57029;SDS011;42920;45.306;20.448;2023-07-13T12:24:14;21.55;;;7.70;;
57029;SDS011;42920;45.306;20.448;2023-07-13T12:26:41;19.60;;;6.30;;
57029;SDS011;42920;45.306;20.448;2023-07-13T12:29:07;14.85;;;6.57;;
57029;SDS011;42920;45.306;20.448;2023-07-13T12:31:41;14.70;;;6.82;;
57029;SDS011;42920;45.306;20.448;2023-07-13T12:34:17;11.70;;;5.78;;
57029;SDS011;42920;45.306;20.448;2023-07-13T12:36:54;13.10;;;5.97;;
57029;SDS011;42920;45.306;20.448;2023-07-13T12:39:55;16.15;;;6.45;;
57029;SDS011;42920;45.306;20.448;2023-07-13T12:42:24;50.63;;;9.05;;
57029;SDS011;42920;45.306;20.448;2023-07-13T12:45:01;16.27;;;6.40;;
57029;SDS011;42920;45.306;20.448;2023-07-13T12:48:04;14.52;;;6.20;;
57029;SDS011;42920;45.306;20.448;2023-07-13T12:50:39;12.80;;;7.00;;
57029;SDS011;42920;45.306;20.448;2023-07-13T12:53:13;15.65;;;6.35;;
57029;SDS011;42920;45.306;20.448;2023-07-13T12:55:54;16.27;;;6.43;;
57029;SDS011;42920;45.306;20.448;2023-07-13T13:00:57;21.17;;;6.82;;
57029;SDS011;42920;45.306;20.448;2023-07-13T13:08:40;13.77;;;6.10;;
57029;SDS011;42920;45.306;20.448;2023-07-13T13:11:07;19.77;;;6.80;;
57029;SDS011;42920;45.306;20.448;2023-07-13T13:13:34;16.60;;;6.40;;
57029;SDS011;42920;45.306;20.448;2023-07-13T13:18:49;9.65;;;5.45;;
57029;SDS011;42920;45.306;20.448;2023-07-13T13:21:17;14.13;;;5.63;;
57029;SDS011;42920;45.306;20.448;2023-07-13T13:23:44;14.23;;;5.90;;
57029;SDS011;42920;45.306;20.448;2023-07-13T13:26:11;14.60;;;5.50;;
57029;SDS011;42920;45.306;20.448;2023-07-13T13:28:40;13.80;;;5.30;;
57029;SDS011;42920;45.306;20.448;2023-07-13T13:31:07;13.68;;;6.07;;
57029;SDS011;42920;45.306;20.448;2023-07-13T13:33:37;13.05;;;5.95;;
57029;SDS011;42920;45.306;20.448;2023-07-13T13:36:17;11.35;;;6.03;;
57029;SDS011;42920;45.306;20.448;2023-07-13T13:38:45;16.50;;;6.28;;
57029;SDS011;42920;45.306;20.448;2023-07-13T13:41:11;20.42;;;6.55;;
57029;SDS011;42920;45.306;20.448;2023-07-13T13:43:38;17.77;;;6.65;;
57029;SDS011;42920;45.306;20.448;2023-07-13T13:46:11;13.75;;;6.28;;
57029;SDS011;42920;45.306;20.448;2023-07-13T13:48:43;16.48;;;6.40;;
57029;SDS011;42920;45.306;20.448;2023-07-13T13:51:20;11.50;;;5.85;;
57029;SDS011;42920;45.306;20.448;2023-07-13T13:53:46;13.90;;;6.15;;
57029;SDS011;42920;45.306;20.448;2023-07-13T13:56:16;15.32;;;6.20;;
57029;SDS011;42920;45.306;20.448;2023-07-13T13:58:43;12.20;;;5.85;;
57029;SDS011;42920;45.306;20.448;2023-07-13T14:01:13;16.13;;;6.35;;
57029;SDS011;42920;45.306;20.448;2023-07-13T14:03:46;14.70;;;5.90;;
57029;SDS011;42920;45.306;20.448;2023-07-13T14:06:14;16.88;;;5.75;;
57029;SDS011;42920;45.306;20.448;2023-07-13T14:08:41;15.23;;;5.82;;
57029;SDS011;42920;45.306;20.448;2023-07-13T14:11:09;19.42;;;5.55;;
57029;SDS011;42920;45.306;20.448;2023-07-13T14:13:50;17.17;;;5.65;;
57029;SDS011;42920;45.306;20.448;2023-07-13T14:16:20;13.55;;;4.80;;
57029;SDS011;42920;45.306;20.448;2023-07-13T14:18:47;14.48;;;5.40;;
57029;SDS011;42920;45.306;20.448;2023-07-13T14:21:15;15.20;;;5.03;;
57029;SDS011;42920;45.306;20.448;2023-07-13T14:23:43;11.52;;;4.65;;
57029;SDS011;42920;45.306;20.448;2023-07-13T14:26:14;13.23;;;4.80;;
57029;SDS011;42920;45.306;20.448;2023-07-13T14:28:42;10.88;;;4.28;;
57029;SDS011;42920;45.306;20.448;2023-07-13T14:31:13;16.95;;;5.03;;
57029;SDS011;42920;45.306;20.448;2023-07-13T14:33:40;14.55;;;5.20;;
57029;SDS011;42920;45.306;20.448;2023-07-13T14:38:59;8.43;;;4.05;;
57029;SDS011;42920;45.306;20.448;2023-07-13T14:41:42;13.45;;;4.60;;
57029;SDS011;42920;45.306;20.448;2023-07-13T14:44:15;18.20;;;4.90;;
57029;SDS011;42920;45.306;20.448;2023-07-13T14:46:43;12.10;;;4.50;;
57029;SDS011;42920;45.306;20.448;2023-07-13T14:52:18;15.52;;;5.82;;
57029;SDS011;42920;45.306;20.448;2023-07-13T14:54:45;10.70;;;4.40;;
57029;SDS011;42920;45.306;20.448;2023-07-13T14:57:12;9.57;;;5.10;;
57029;SDS011;42920;45.306;20.448;2023-07-13T14:59:38;15.05;;;5.38;;
57029;SDS011;42920;45.306;20.448;2023-07-13T15:04:43;12.65;;;5.13;;
57029;SDS011;42920;45.306;20.448;2023-07-13T15:07:10;12.05;;;5.00;;
57029;SDS011;42920;45.306;20.448;2023-07-13T15:09:38;12.43;;;5.18;;
57029;SDS011;42920;45.306;20.448;2023-07-13T15:12:04;13.77;;;5.22;;
57029;SDS011;42920;45.306;20.448;2023-07-13T15:14:30;11.90;;;4.68;;
57029;SDS011;42920;45.306;20.448;2023-07-13T15:16:56;6.60;;;4.15;;
57029;SDS011;42920;45.306;20.448;2023-07-13T15:19:22;13.05;;;4.65;;
57029;SDS011;42920;45.306;20.448;2023-07-13T15:21:49;12.52;;;5.28;;
57029;SDS011;42920;45.306;20.448;2023-07-13T15:24:16;17.48;;;6.32;;
57029;SDS011;42920;45.306;20.448;2023-07-13T15:26:42;14.30;;;5.38;;
57029;SDS011;42920;45.306;20.448;2023-07-13T15:29:13;13.90;;;4.50;;
57029;SDS011;42920;45.306;20.448;2023-07-13T15:31:42;12.88;;;5.32;;
57029;SDS011;42920;45.306;20.448;2023-07-13T15:34:12;10.70;;;4.80;;
57029;SDS011;42920;45.306;20.448;2023-07-13T15:36:40;9.98;;;4.22;;
57029;SDS011;42920;45.306;20.448;2023-07-13T15:39:06;11.90;;;4.82;;
57029;SDS011;42920;45.306;20.448;2023-07-13T15:41:31;12.30;;;5.47;;
57029;SDS011;42920;45.306;20.448;2023-07-13T15:43:59;10.48;;;4.82;;
57029;SDS011;42920;45.306;20.448;2023-07-13T15:46:30;17.08;;;5.32;;
57029;SDS011;42920;45.306;20.448;2023-07-13T15:48:57;9.57;;;4.82;;
57029;SDS011;42920;45.306;20.448;2023-07-13T15:51:24;11.30;;;4.60;;
57029;SDS011;42920;45.306;20.448;2023-07-13T15:53:52;10.57;;;4.85;;
57029;SDS011;42920;45.306;20.448;2023-07-13T15:56:22;13.40;;;5.10;;
57029;SDS011;42920;45.306;20.448;2023-07-13T15:58:51;17.88;;;4.78;;
57029;SDS011;42920;45.306;20.448;2023-07-13T16:01:17;13.70;;;4.78;;
57029;SDS011;42920;45.306;20.448;2023-07-13T16:03:44;13.10;;;4.45;;
57029;SDS011;42920;45.306;20.448;2023-07-13T16:08:42;9.68;;;4.22;;
57029;SDS011;42920;45.306;20.448;2023-07-13T16:11:13;12.48;;;4.72;;
57029;SDS011;42920;45.306;20.448;2023-07-13T16:13:43;15.40;;;4.88;;
57029;SDS011;42920;45.306;20.448;2023-07-13T16:16:10;13.55;;;4.50;;
57029;SDS011;42920;45.306;20.448;2023-07-13T16:18:37;18.95;;;4.53;;
57029;SDS011;42920;45.306;20.448;2023-07-13T16:21:03;9.30;;;3.72;;
57029;SDS011;42920;45.306;20.448;2023-07-13T16:23:36;11.80;;;4.28;;
57029;SDS011;42920;45.306;20.448;2023-07-13T16:26:02;16.70;;;4.43;;
57029;SDS011;42920;45.306;20.448;2023-07-13T16:28:29;14.60;;;5.07;;
57029;SDS011;42920;45.306;20.448;2023-07-13T16:30:56;15.30;;;4.32;;
57029;SDS011;42920;45.306;20.448;2023-07-13T16:33:21;10.13;;;4.75;;
57029;SDS011;42920;45.306;20.448;2023-07-13T16:35:47;18.40;;;4.05;;
57029;SDS011;42920;45.306;20.448;2023-07-13T16:38:14;7.05;;;3.63;;
57029;SDS011;42920;45.306;20.448;2023-07-13T16:40:42;7.60;;;3.45;;
57029;SDS011;42920;45.306;20.448;2023-07-13T16:43:11;11.25;;;4.20;;
57029;SDS011;42920;45.306;20.448;2023-07-13T16:45:38;14.65;;;3.80;;
57029;SDS011;42920;45.306;20.448;2023-07-13T16:48:15;18.08;;;3.72;;
57029;SDS011;42920;45.306;20.448;2023-07-13T16:53:22;19.75;;;3.53;;
57029;SDS011;42920;45.306;20.448;2023-07-13T16:55:53;13.40;;;3.30;;
57029;SDS011;42920;45.306;20.448;2023-07-13T16:58:21;12.98;;;3.80;;
57029;SDS011;42920;45.306;20.448;2023-07-13T17:00:50;8.57;;;2.90;;
57029;SDS011;42920;45.306;20.448;2023-07-13T17:03:17;13.07;;;3.10;;
57029;SDS011;42920;45.306;20.448;2023-07-13T17:05:44;12.93;;;2.97;;
57029;SDS011;42920;45.306;20.448;2023-07-13T17:08:31;9.57;;;3.35;;
57029;SDS011;42920;45.306;20.448;2023-07-13T17:10:58;17.33;;;4.00;;
57029;SDS011;42920;45.306;20.448;2023-07-13T17:13:25;8.77;;;3.33;;
57029;SDS011;42920;45.306;20.448;2023-07-13T17:15:53;12.50;;;3.17;;
57029;SDS011;42920;45.306;20.448;2023-07-13T17:18:27;8.45;;;3.28;;
57029;SDS011;42920;45.306;20.448;2023-07-13T17:21:01;9.77;;;3.17;;
57029;SDS011;42920;45.306;20.448;2023-07-13T17:23:30;6.25;;;2.90;;
57029;SDS011;42920;45.306;20.448;2023-07-13T17:25:58;7.88;;;2.50;;
57029;SDS011;42920;45.306;20.448;2023-07-13T17:28:23;7.82;;;3.15;;
57029;SDS011;42920;45.306;20.448;2023-07-13T17:30:51;9.13;;;3.08;;
57029;SDS011;42920;45.306;20.448;2023-07-13T17:35:54;10.70;;;2.80;;
57029;SDS011;42920;45.306;20.448;2023-07-13T17:38:21;7.93;;;2.80;;
57029;SDS011;42920;45.306;20.448;2023-07-13T17:40:48;11.32;;;3.53;;
57029;SDS011;42920;45.306;20.448;2023-07-13T17:43:14;7.25;;;3.03;;
57029;SDS011;42920;45.306;20.448;2023-07-13T17:45:40;10.50;;;2.75;;
57029;SDS011;42920;45.306;20.448;2023-07-13T17:48:09;14.27;;;3.45;;
57029;SDS011;42920;45.306;20.448;2023-07-13T17:50:37;11.88;;;3.58;;
57029;SDS011;42920;45.306;20.448;2023-07-13T17:53:16;15.93;;;3.22;;
57029;SDS011;42920;45.306;20.448;2023-07-13T17:55:43;11.90;;;2.93;;
57029;SDS011;42920;45.306;20.448;2023-07-13T17:58:09;11.55;;;3.92;;
57029;SDS011;42920;45.306;20.448;2023-07-13T18:00:37;13.57;;;3.40;;
57029;SDS011;42920;45.306;20.448;2023-07-13T18:03:10;7.53;;;3.05;;
57029;SDS011;42920;45.306;20.448;2023-07-13T18:05:38;9.05;;;3.58;;
57029;SDS011;42920;45.306;20.448;2023-07-13T18:08:05;6.82;;;2.90;;
57029;SDS011;42920;45.306;20.448;2023-07-13T18:10:42;9.10;;;2.90;;
57029;SDS011;42920;45.306;20.448;2023-07-13T18:13:08;11.20;;;3.40;;
57029;SDS011;42920;45.306;20.448;2023-07-13T18:15:34;7.55;;;2.83;;
57029;SDS011;42920;45.306;20.448;2023-07-13T18:17:59;5.75;;;2.88;;
57029;SDS011;42920;45.306;20.448;2023-07-13T18:20:25;8.63;;;2.80;;
57029;SDS011;42920;45.306;20.448;2023-07-13T18:22:52;11.65;;;3.42;;
57029;SDS011;42920;45.306;20.448;2023-07-13T18:25:19;12.05;;;3.78;;
57029;SDS011;42920;45.306;20.448;2023-07-13T18:27:47;9.35;;;4.13;;
57029;SDS011;42920;45.306;20.448;2023-07-13T18:30:14;5.95;;;3.00;;
57029;SDS011;42920;45.306;20.448;2023-07-13T18:32:42;5.50;;;3.13;;
57029;SDS011;42920;45.306;20.448;2023-07-13T18:35:14;10.27;;;3.60;;
57029;SDS011;42920;45.306;20.448;2023-07-13T18:37:43;11.73;;;3.70;;
57029;SDS011;42920;45.306;20.448;2023-07-13T18:40:13;9.93;;;4.03;;
57029;SDS011;42920;45.306;20.448;2023-07-13T19:03:06;8.60;;;3.88;;
57029;SDS011;42920;45.306;20.448;2023-07-13T19:08:10;10.90;;;3.63;;
57029;SDS011;42920;45.306;20.448;2023-07-13T19:10:41;9.48;;;3.70;;
57029;SDS011;42920;45.306;20.448;2023-07-13T19:13:07;6.32;;;3.83;;
57029;SDS011;42920;45.306;20.448;2023-07-13T19:15:35;10.52;;;4.32;;
57029;SDS011;42920;45.306;20.448;2023-07-13T19:18:04;16.05;;;4.72;;
57029;SDS011;42920;45.306;20.448;2023-07-13T19:20:38;8.13;;;3.75;;
57029;SDS011;42920;45.306;20.448;2023-07-13T19:23:10;10.98;;;4.32;;
57029;SDS011;42920;45.306;20.448;2023-07-13T19:25:47;12.55;;;4.82;;
57029;SDS011;42920;45.306;20.448;2023-07-13T19:28:27;15.98;;;5.28;;
57029;SDS011;42920;45.306;20.448;2023-07-13T19:30:58;14.73;;;5.05;;
57029;SDS011;42920;45.306;20.448;2023-07-13T19:33:24;21.63;;;6.75;;
57029;SDS011;42920;45.306;20.448;2023-07-13T19:35:50;15.82;;;6.70;;
57029;SDS011;42920;45.306;20.448;2023-07-13T19:38:22;17.58;;;5.95;;
57029;SDS011;42920;45.306;20.448;2023-07-13T19:40:50;21.55;;;6.82;;
57029;SDS011;42920;45.306;20.448;2023-07-13T19:43:17;21.35;;;7.25;;
57029;SDS011;42920;45.306;20.448;2023-07-13T19:45:42;17.13;;;6.13;;
57029;SDS011;42920;45.306;20.448;2023-07-13T19:48:08;22.50;;;7.38;;
57029;SDS011;42920;45.306;20.448;2023-07-13T19:50:34;25.77;;;7.30;;
57029;SDS011;42920;45.306;20.448;2023-07-13T19:53:02;19.17;;;7.00;;
57029;SDS011;42920;45.306;20.448;2023-07-13T19:55:28;20.92;;;7.50;;
57029;SDS011;42920;45.306;20.448;2023-07-13T19:57:54;20.90;;;7.78;;
57029;SDS011;42920;45.306;20.448;2023-07-13T20:00:22;18.42;;;7.05;;
57029;SDS011;42920;45.306;20.448;2023-07-13T20:02:49;13.98;;;5.90;;
57029;SDS011;42920;45.306;20.448;2023-07-13T20:05:16;23.58;;;7.82;;
57029;SDS011;42920;45.306;20.448;2023-07-13T20:07:58;25.05;;;7.38;;
57029;SDS011;42920;45.306;20.448;2023-07-13T20:10:25;17.80;;;7.38;;
57029;SDS011;42920;45.306;20.448;2023-07-13T20:12:56;17.42;;;7.43;;
57029;SDS011;42920;45.306;20.448;2023-07-13T20:15:28;17.60;;;7.18;;
57029;SDS011;42920;45.306;20.448;2023-07-13T20:17:56;14.32;;;6.90;;
57029;SDS011;42920;45.306;20.448;2023-07-13T20:22:58;17.45;;;7.00;;
57029;SDS011;42920;45.306;20.448;2023-07-13T20:25:28;17.35;;;8.13;;
57029;SDS011;42920;45.306;20.448;2023-07-13T20:27:57;12.20;;;6.70;;
57029;SDS011;42920;45.306;20.448;2023-07-13T20:30:33;18.45;;;7.80;;
57029;SDS011;42920;45.306;20.448;2023-07-13T20:33:01;20.88;;;7.78;;
57029;SDS011;42920;45.306;20.448;2023-07-13T20:35:32;18.20;;;7.80;;
57029;SDS011;42920;45.306;20.448;2023-07-13T20:38:00;20.70;;;8.52;;
57029;SDS011;42920;45.306;20.448;2023-07-13T20:40:28;16.98;;;7.35;;
57029;SDS011;42920;45.306;20.448;2023-07-13T20:42:55;13.23;;;7.50;;
57029;SDS011;42920;45.306;20.448;2023-07-13T20:45:23;17.52;;;7.03;;
57029;SDS011;42920;45.306;20.448;2023-07-13T20:47:51;16.80;;;7.20;;
57029;SDS011;42920;45.306;20.448;2023-07-13T20:50:24;20.92;;;6.60;;
57029;SDS011;42920;45.306;20.448;2023-07-13T20:52:58;13.13;;;7.05;;
57029;SDS011;42920;45.306;20.448;2023-07-13T20:55:25;16.17;;;6.45;;